Time;durP1;ratioP1;P1;durP2;ratioP2;P2;SDS_P1;SDS_P2;PMS_P1;PMS_P2;Temp;Humidity;BMP_temperature;BMP_pressure;BME280_temperature;BME280_humidity;BME280_pressure;Samples;Min_cycle;Max_cycle;Signal;HPM_P1;HPM_P2
2021/09/07 00:02:39;0.00;0.00;0.62;0.00;0.00;0.62;5.53;4.53;;;27.40;31.80;;;;;;2265619;61;20376;-63
2021/09/07 00:05:23;0.00;0.00;0.62;0.00;0.00;0.62;5.10;4.37;;;27.40;31.80;;;;;;2265568;61;20389;-61
2021/09/07 00:08:09;0.00;0.00;0.62;0.00;0.00;0.62;6.37;5.00;;;27.40;31.80;;;;;;2265612;61;20392;-58
2021/09/07 00:10:54;0.00;0.00;0.62;0.00;0.00;0.62;4.47;4.03;;;27.40;31.80;;;;;;2265422;61;20385;-60
2021/09/07 00:13:40;0.00;0.00;0.62;0.00;0.00;0.62;5.07;4.57;;;27.40;31.80;;;;;;2265615;61;20376;-60
2021/09/07 00:16:25;0.00;0.00;0.62;0.00;0.00;0.62;4.93;4.43;;;27.40;31.90;;;;;;2265443;61;20430;-61
2021/09/07 00:19:10;0.00;0.00;0.62;0.00;0.00;0.62;4.67;4.17;;;27.40;31.90;;;;;;2265223;61;20381;-61
2021/09/07 00:21:55;0.00;0.00;0.62;0.00;0.00;0.62;4.23;3.83;;;27.40;31.90;;;;;;2265508;61;20360;-61
2021/09/07 00:24:41;0.00;0.00;0.62;0.00;0.00;0.62;4.60;4.10;;;27.40;32.00;;;;;;2265025;61;20356;-60
2021/09/07 00:27:25;0.00;0.00;0.62;0.00;0.00;0.62;6.17;4.63;;;27.40;32.00;;;;;;2265251;61;20365;-62
2021/09/07 00:30:12;0.00;0.00;0.62;0.00;0.00;0.62;4.60;4.03;;;27.40;32.00;;;;;;2265467;61;20595;-61
2021/09/07 00:32:56;0.00;0.00;0.62;0.00;0.00;0.62;4.57;4.17;;;27.40;32.00;;;;;;2265553;61;20381;-60
2021/09/07 00:35:41;0.00;0.00;0.62;0.00;0.00;0.62;4.70;4.20;;;27.40;32.00;;;;;;2265149;61;20392;-58
2021/09/07 00:38:25;0.00;0.00;0.62;0.00;0.00;0.62;5.00;4.50;;;27.40;32.00;;;;;;2265462;61;20608;-61
2021/09/07 00:41:11;0.00;0.00;0.62;0.00;0.00;0.62;5.00;4.50;;;27.40;31.90;;;;;;2265049;61;20388;-60
2021/09/07 00:43:55;0.00;0.00;0.62;0.00;0.00;0.62;5.77;4.40;;;27.40;31.90;;;;;;2265694;61;20389;-61
2021/09/07 00:46:40;0.00;0.00;0.62;0.00;0.00;0.62;4.80;4.40;;;27.40;32.00;;;;;;2265672;61;20368;-60
2021/09/07 00:49:28;0.00;0.00;0.62;0.00;0.00;0.62;4.83;4.03;;;27.40;32.00;;;;;;2265376;61;20353;-61
2021/09/07 00:52:13;0.00;0.00;0.62;0.00;0.00;0.62;5.23;3.90;;;27.40;32.00;;;;;;2265627;61;20377;-60
2021/09/07 00:54:59;0.00;0.00;0.62;0.00;0.00;0.62;12.30;4.17;;;27.40;32.10;;;;;;2265442;61;20357;-61
2021/09/07 00:57:46;0.00;0.00;0.62;0.00;0.00;0.62;6.23;4.27;;;27.40;32.00;;;;;;2265471;61;20446;-59
2021/09/07 01:00:31;0.00;0.00;0.62;0.00;0.00;0.62;4.87;4.00;;;27.40;32.10;;;;;;2265417;61;20373;-61
2021/09/07 01:03:16;0.00;0.00;0.62;0.00;0.00;0.62;6.00;4.30;;;27.40;32.10;;;;;;2265093;61;20482;-59
2021/09/07 01:06:01;0.00;0.00;0.62;0.00;0.00;0.62;5.07;3.93;;;27.40;32.10;;;;;;2265755;61;20399;-60
2021/09/07 01:08:47;0.00;0.00;0.62;0.00;0.00;0.62;5.83;4.13;;;27.40;32.10;;;;;;2265652;61;20399;-60
2021/09/07 01:11:32;0.00;0.00;0.62;0.00;0.00;0.62;4.63;4.20;;;27.40;32.20;;;;;;2265292;61;20380;-60
2021/09/07 01:14:18;0.00;0.00;0.62;0.00;0.00;0.62;5.30;4.33;;;27.40;32.10;;;;;;2265186;61;20830;-59
2021/09/07 01:17:11;0.00;0.00;0.62;0.00;0.00;0.62;3.93;3.53;;;27.40;32.20;;;;;;2265372;61;20365;-60
2021/09/07 01:19:57;0.00;0.00;0.62;0.00;0.00;0.62;5.13;3.80;;;27.30;32.10;;;;;;2265349;61;20411;-60
2021/09/07 01:22:42;0.00;0.00;0.62;0.00;0.00;0.62;6.07;4.20;;;27.40;32.20;;;;;;2265360;61;20388;-62
2021/09/07 01:25:27;0.00;0.00;0.62;0.00;0.00;0.62;4.80;4.20;;;27.40;32.20;;;;;;2265874;61;20433;-60
2021/09/07 01:28:16;0.00;0.00;0.62;0.00;0.00;0.62;4.90;4.10;;;27.30;32.10;;;;;;2266403;61;20677;-61
2021/09/07 01:31:03;0.00;0.00;0.62;0.00;0.00;0.62;5.50;4.20;;;27.30;32.10;;;;;;2266245;61;20352;-61
2021/09/07 01:33:49;0.00;0.00;0.62;0.00;0.00;0.62;5.20;4.13;;;27.40;32.20;;;;;;2265778;61;20796;-60
2021/09/07 01:36:35;0.00;0.00;0.62;0.00;0.00;0.62;3.93;3.40;;;27.30;32.20;;;;;;2266245;61;20352;-59
2021/09/07 01:39:19;0.00;0.00;0.62;0.00;0.00;0.62;6.57;4.40;;;27.30;32.20;;;;;;2265956;61;20388;-61
2021/09/07 01:42:06;0.00;0.00;0.62;0.00;0.00;0.62;4.87;4.37;;;27.30;32.20;;;;;;2265993;61;20745;-61
2021/09/07 01:44:51;0.00;0.00;0.62;0.00;0.00;0.62;4.47;4.07;;;27.30;32.30;;;;;;2266237;61;20373;-59
2021/09/07 01:47:38;0.00;0.00;0.62;0.00;0.00;0.62;4.50;4.00;;;27.30;32.30;;;;;;2265685;61;20588;-60
2021/09/07 01:50:23;0.00;0.00;0.62;0.00;0.00;0.62;4.40;3.70;;;27.30;32.30;;;;;;2266323;61;20620;-60
2021/09/07 01:53:08;0.00;0.00;0.62;0.00;0.00;0.62;4.10;3.70;;;27.30;32.30;;;;;;2266175;61;20752;-61
2021/09/07 01:55:54;0.00;0.00;0.62;0.00;0.00;0.62;4.03;3.63;;;27.30;32.40;;;;;;2265685;61;20376;-60
2021/09/07 01:58:39;0.00;0.00;0.62;0.00;0.00;0.62;4.60;4.20;;;27.30;32.40;;;;;;2266183;61;20772;-60
2021/09/07 02:01:25;0.00;0.00;0.62;0.00;0.00;0.62;5.13;3.73;;;27.30;32.40;;;;;;2265790;61;20369;-61
2021/09/07 02:04:10;0.00;0.00;0.62;0.00;0.00;0.62;5.10;4.60;;;27.30;32.40;;;;;;2265958;61;20377;-61
2021/09/07 02:06:55;0.00;0.00;0.62;0.00;0.00;0.62;4.20;3.77;;;27.30;32.40;;;;;;2265985;61;20361;-60
2021/09/07 02:09:42;0.00;0.00;0.62;0.00;0.00;0.62;5.60;4.67;;;27.30;32.40;;;;;;2265779;61;20441;-61
2021/09/07 02:12:29;0.00;0.00;0.62;0.00;0.00;0.62;5.03;4.10;;;27.30;32.40;;;;;;2266233;61;20381;-61
2021/09/07 02:15:16;0.00;0.00;0.62;0.00;0.00;0.62;4.47;4.03;;;27.20;32.30;;;;;;2266099;61;20356;-61
2021/09/07 02:18:02;0.00;0.00;0.62;0.00;0.00;0.62;4.63;4.23;;;27.20;32.40;;;;;;2265717;61;20377;-61
2021/09/07 02:20:46;0.00;0.00;0.62;0.00;0.00;0.62;6.10;4.37;;;27.20;32.30;;;;;;2265998;61;20357;-61
2021/09/07 02:23:31;0.00;0.00;0.62;0.00;0.00;0.62;5.97;4.40;;;27.20;32.30;;;;;;2265943;61;20424;-60
2021/09/07 02:26:15;0.00;0.00;0.62;0.00;0.00;0.62;3.87;3.47;;;27.20;32.30;;;;;;2265985;61;20365;-62
2021/09/07 02:29:00;0.00;0.00;0.62;0.00;0.00;0.62;4.67;3.80;;;27.20;32.30;;;;;;2265811;61;20647;-60
2021/09/07 02:31:47;0.00;0.00;0.62;0.00;0.00;0.62;4.37;3.97;;;27.20;32.40;;;;;;2265920;61;20357;-59
2021/09/07 02:34:32;0.00;0.00;0.62;0.00;0.00;0.62;4.27;3.60;;;27.20;32.40;;;;;;2266358;61;20381;-61
2021/09/07 02:37:17;0.00;0.00;0.62;0.00;0.00;0.62;4.77;4.23;;;27.20;32.40;;;;;;2265815;61;20395;-61
2021/09/07 02:40:02;0.00;0.00;0.62;0.00;0.00;0.62;3.90;3.50;;;27.20;32.40;;;;;;2265523;61;20673;-59
2021/09/07 02:42:47;0.00;0.00;0.62;0.00;0.00;0.62;5.20;4.37;;;27.20;32.50;;;;;;2265878;61;20449;-61
2021/09/07 02:45:31;0.00;0.00;0.62;0.00;0.00;0.62;4.47;3.77;;;27.20;32.50;;;;;;2266070;61;20368;-60
2021/09/07 02:48:18;0.00;0.00;0.62;0.00;0.00;0.62;4.40;3.93;;;27.20;32.50;;;;;;2265816;61;20350;-59
2021/09/07 02:51:03;0.00;0.00;0.62;0.00;0.00;0.62;5.20;3.40;;;27.20;32.50;;;;;;2265808;61;20441;-61
2021/09/07 02:53:50;0.00;0.00;0.62;0.00;0.00;0.62;4.93;4.43;;;27.20;32.50;;;;;;2265952;61;20622;-61
2021/09/07 02:56:35;0.00;0.00;0.62;0.00;0.00;0.62;3.93;3.53;;;27.20;32.50;;;;;;2265980;61;20416;-59
2021/09/07 02:59:19;0.00;0.00;0.62;0.00;0.00;0.62;4.83;4.20;;;27.20;32.50;;;;;;2265830;61;20768;-61
2021/09/07 03:02:04;0.00;0.00;0.62;0.00;0.00;0.62;3.50;3.20;;;27.20;32.60;;;;;;2265416;61;20400;-60
2021/09/07 03:04:50;0.00;0.00;0.62;0.00;0.00;0.62;3.93;3.53;;;27.20;32.60;;;;;;2265896;61;20388;-61
2021/09/07 03:07:35;0.00;0.00;0.62;0.00;0.00;0.62;4.70;4.30;;;27.20;32.60;;;;;;2265981;61;20443;-59
2021/09/07 03:10:20;0.00;0.00;0.62;0.00;0.00;0.62;4.10;3.60;;;27.20;32.60;;;;;;2265533;61;20388;-61
2021/09/07 03:13:05;0.00;0.00;0.62;0.00;0.00;0.62;4.93;4.00;;;27.10;32.60;;;;;;2265961;61;20384;-61
2021/09/07 03:15:50;0.00;0.00;0.62;0.00;0.00;0.62;4.17;3.70;;;27.10;32.60;;;;;;2265782;61;20607;-61
2021/09/07 03:18:36;0.00;0.00;0.62;0.00;0.00;0.62;5.70;3.77;;;27.10;32.60;;;;;;2265665;61;20415;-60
2021/09/07 03:21:22;0.00;0.00;0.62;0.00;0.00;0.62;11.83;4.27;;;27.10;32.60;;;;;;2265650;61;20357;-59
2021/09/07 03:24:07;0.00;0.00;0.62;0.00;0.00;0.62;4.47;4.07;;;27.10;32.60;;;;;;2265433;61;20738;-61
2021/09/07 03:26:52;0.00;0.00;0.62;0.00;0.00;0.62;4.57;3.80;;;27.10;32.50;;;;;;2265796;61;20353;-59
2021/09/07 03:29:38;0.00;0.00;0.62;0.00;0.00;0.62;4.10;3.70;;;27.10;32.50;;;;;;2265821;61;20412;-60
2021/09/07 03:32:22;0.00;0.00;0.62;0.00;0.00;0.62;3.93;3.53;;;27.10;32.50;;;;;;2264956;61;20587;-61
2021/09/07 03:35:08;0.00;0.00;0.62;0.00;0.00;0.62;3.90;3.53;;;27.10;32.50;;;;;;2265873;61;20432;-62
2021/09/07 03:37:55;0.00;0.00;0.62;0.00;0.00;0.62;4.43;3.70;;;27.10;32.50;;;;;;2265608;61;20412;-60
2021/09/07 03:40:39;0.00;0.00;0.62;0.00;0.00;0.62;6.17;4.13;;;27.10;32.50;;;;;;2265189;61;20464;-61
2021/09/07 03:43:24;0.00;0.00;0.62;0.00;0.00;0.62;5.07;3.77;;;27.10;32.50;;;;;;2265639;61;20372;-61
2021/09/07 03:46:09;0.00;0.00;0.62;0.00;0.00;0.62;3.93;3.53;;;27.10;32.60;;;;;;2264935;61;20737;-61
2021/09/07 03:48:56;0.00;0.00;0.62;0.00;0.00;0.62;3.80;3.43;;;27.10;32.60;;;;;;2265909;61;20554;-61
2021/09/07 03:51:41;0.00;0.00;0.62;0.00;0.00;0.62;3.87;3.40;;;27.10;32.80;;;;;;2265787;61;20431;-61
2021/09/07 03:54:29;0.00;0.00;0.62;0.00;0.00;0.62;5.17;4.10;;;27.10;32.60;;;;;;2265249;61;20437;-61
2021/09/07 03:57:14;0.00;0.00;0.62;0.00;0.00;0.62;4.03;3.50;;;27.10;32.60;;;;;;2265827;61;20365;-61
2021/09/07 04:00:00;0.00;0.00;0.62;0.00;0.00;0.62;4.17;3.27;;;27.00;32.50;;;;;;2265440;61;20741;-59
2021/09/07 04:02:45;0.00;0.00;0.62;0.00;0.00;0.62;4.93;3.97;;;27.00;32.50;;;;;;2265470;61;20757;-61
2021/09/07 04:05:29;0.00;0.00;0.62;0.00;0.00;0.62;5.60;4.03;;;27.00;32.50;;;;;;2265691;61;20373;-61
2021/09/07 04:08:14;0.00;0.00;0.62;0.00;0.00;0.62;4.60;3.77;;;27.10;32.60;;;;;;2265346;61;20356;-59
2021/09/07 04:11:00;0.00;0.00;0.62;0.00;0.00;0.62;4.50;3.90;;;27.00;32.50;;;;;;2265820;61;20391;-61
2021/09/07 04:13:46;0.00;0.00;0.62;0.00;0.00;0.62;5.50;4.50;;;27.00;32.50;;;;;;2265813;61;20385;-60
2021/09/07 04:16:31;0.00;0.00;0.62;0.00;0.00;0.62;4.87;4.20;;;27.00;32.50;;;;;;2265216;61;20385;-60
2021/09/07 04:19:15;0.00;0.00;0.62;0.00;0.00;0.62;3.77;3.37;;;27.00;32.50;;;;;;2265774;61;20377;-61
2021/09/07 04:22:00;0.00;0.00;0.62;0.00;0.00;0.62;5.13;4.63;;;27.00;32.50;;;;;;2265313;61;20693;-61
2021/09/07 04:24:45;0.00;0.00;0.62;0.00;0.00;0.62;4.93;4.40;;;27.00;32.50;;;;;;2265552;61;20360;-60
2021/09/07 04:27:31;0.00;0.00;0.62;0.00;0.00;0.62;4.57;4.03;;;27.00;32.50;;;;;;2265507;61;20396;-60
2021/09/07 04:30:15;0.00;0.00;0.62;0.00;0.00;0.62;4.90;4.00;;;27.00;32.50;;;;;;2265519;61;20433;-61
2021/09/07 04:33:00;0.00;0.00;0.62;0.00;0.00;0.62;5.03;4.03;;;27.00;32.50;;;;;;2265883;61;20408;-60
2021/09/07 04:35:45;0.00;0.00;0.62;0.00;0.00;0.62;4.33;3.40;;;27.00;32.50;;;;;;2265577;61;20384;-59
2021/09/07 04:38:29;0.00;0.00;0.62;0.00;0.00;0.62;4.10;3.60;;;27.00;32.50;;;;;;2265163;61;20381;-61
2021/09/07 04:41:14;0.00;0.00;0.62;0.00;0.00;0.62;4.47;3.60;;;27.00;32.50;;;;;;2265206;61;20341;-61
2021/09/07 04:44:01;0.00;0.00;0.62;0.00;0.00;0.62;5.23;4.07;;;26.90;32.50;;;;;;2265630;61;20592;-61
2021/09/07 04:46:46;0.00;0.00;0.62;0.00;0.00;0.62;4.57;3.83;;;26.90;32.50;;;;;;2265327;61;20455;-61
2021/09/07 04:49:31;0.00;0.00;0.62;0.00;0.00;0.62;3.90;3.50;;;26.90;32.50;;;;;;2265580;61;20381;-61
2021/09/07 04:52:16;0.00;0.00;0.62;0.00;0.00;0.62;4.57;3.80;;;26.90;32.60;;;;;;2265470;61;20649;-61
2021/09/07 04:55:00;0.00;0.00;0.62;0.00;0.00;0.62;6.00;4.10;;;26.90;32.50;;;;;;2265386;61;20591;-60
2021/09/07 04:57:45;0.00;0.00;0.62;0.00;0.00;0.62;4.40;3.93;;;26.90;32.60;;;;;;2265439;61;20605;-59
2021/09/07 05:00:30;0.00;0.00;0.62;0.00;0.00;0.62;4.13;3.70;;;26.90;32.60;;;;;;2265806;61;20752;-61
2021/09/07 05:03:15;0.00;0.00;0.62;0.00;0.00;0.62;4.37;3.60;;;26.90;32.60;;;;;;2266187;61;20388;-61
2021/09/07 05:05:59;0.00;0.00;0.62;0.00;0.00;0.62;4.87;4.33;;;26.90;32.60;;;;;;2266463;61;20357;-61
2021/09/07 05:08:44;0.00;0.00;0.62;0.00;0.00;0.62;3.70;3.40;;;26.90;32.60;;;;;;2266029;61;20384;-61
2021/09/07 05:11:28;0.00;0.00;0.62;0.00;0.00;0.62;5.13;4.10;;;26.90;32.60;;;;;;2266134;61;20372;-60
2021/09/07 05:14:13;0.00;0.00;0.62;0.00;0.00;0.62;4.40;4.00;;;26.90;32.60;;;;;;2266300;61;20415;-61
2021/09/07 05:16:59;0.00;0.00;0.62;0.00;0.00;0.62;3.93;3.30;;;26.90;32.60;;;;;;2266057;61;20569;-61
2021/09/07 05:19:44;0.00;0.00;0.62;0.00;0.00;0.62;5.67;4.10;;;26.90;33.30;;;;;;2266160;61;20496;-61
2021/09/07 05:22:29;0.00;0.00;0.62;0.00;0.00;0.62;4.53;4.00;;;26.90;32.60;;;;;;2265637;61;20373;-60
2021/09/07 05:25:14;0.00;0.00;0.62;0.00;0.00;0.62;4.30;3.80;;;26.80;32.60;;;;;;2266279;61;20403;-59
2021/09/07 05:27:58;0.00;0.00;0.62;0.00;0.00;0.62;4.87;4.13;;;26.90;32.60;;;;;;2265798;61;20372;-62
2021/09/07 05:30:43;0.00;0.00;0.62;0.00;0.00;0.62;4.00;3.60;;;26.80;32.60;;;;;;2265313;61;20352;-61
2021/09/07 05:33:29;0.00;0.00;0.62;0.00;0.00;0.62;4.90;3.87;;;26.80;32.60;;;;;;2266093;61;20717;-62
2021/09/07 05:36:14;0.00;0.00;0.62;0.00;0.00;0.62;4.30;3.90;;;26.80;32.70;;;;;;2266431;61;20360;-61
2021/09/07 05:38:58;0.00;0.00;0.62;0.00;0.00;0.62;4.80;3.40;;;26.90;32.70;;;;;;2266139;61;20719;-61
2021/09/07 05:41:43;0.00;0.00;0.62;0.00;0.00;0.62;4.67;4.20;;;26.80;32.60;;;;;;2265968;61;20404;-61
2021/09/07 05:44:27;0.00;0.00;0.62;0.00;0.00;0.62;4.73;4.23;;;26.80;32.60;;;;;;2266012;61;20357;-60
2021/09/07 05:47:12;0.00;0.00;0.62;0.00;0.00;0.62;4.80;4.20;;;26.80;32.60;;;;;;2266451;61;20373;-58
2021/09/07 05:49:58;0.00;0.00;0.62;0.00;0.00;0.62;4.97;4.47;;;26.80;32.60;;;;;;2266311;61;20737;-62
2021/09/07 05:52:43;0.00;0.00;0.62;0.00;0.00;0.62;5.30;4.23;;;26.80;32.60;;;;;;2265952;61;20451;-61
2021/09/07 05:55:28;0.00;0.00;0.62;0.00;0.00;0.62;4.53;3.90;;;26.80;32.60;;;;;;2266256;61;20396;-61
2021/09/07 05:58:12;0.00;0.00;0.62;0.00;0.00;0.62;3.83;3.40;;;26.80;32.60;;;;;;2266299;61;20733;-61
2021/09/07 06:00:57;0.00;0.00;0.62;0.00;0.00;0.62;4.43;4.03;;;26.80;32.60;;;;;;2266001;61;20729;-61
2021/09/07 06:03:41;0.00;0.00;0.62;0.00;0.00;0.62;3.90;3.30;;;26.80;32.60;;;;;;2265951;61;20385;-61
2021/09/07 06:06:29;0.00;0.00;0.62;0.00;0.00;0.62;4.40;4.00;;;26.80;32.60;;;;;;2266355;61;20407;-61
2021/09/07 06:09:13;0.00;0.00;0.62;0.00;0.00;0.62;6.60;3.63;;;26.80;32.60;;;;;;2266310;61;20376;-61
2021/09/07 06:11:58;0.00;0.00;0.62;0.00;0.00;0.62;4.87;4.17;;;26.80;32.70;;;;;;2266178;61;20396;-60
2021/09/07 06:14:42;0.00;0.00;0.62;0.00;0.00;0.62;5.23;3.97;;;26.80;32.70;;;;;;2266039;61;20423;-60
2021/09/07 06:17:27;0.00;0.00;0.62;0.00;0.00;0.62;5.53;5.03;;;26.80;32.70;;;;;;2266173;61;20341;-61
2021/09/07 06:20:12;0.00;0.00;0.62;0.00;0.00;0.62;4.53;4.10;;;26.80;32.80;;;;;;2266128;61;20600;-61
2021/09/07 06:22:58;0.00;0.00;0.62;0.00;0.00;0.62;4.53;3.93;;;26.80;32.80;;;;;;2265925;61;20376;-62
2021/09/07 06:25:43;0.00;0.00;0.62;0.00;0.00;0.62;6.07;4.93;;;26.80;32.80;;;;;;2266107;61;20360;-62
2021/09/07 06:28:28;0.00;0.00;0.62;0.00;0.00;0.62;3.97;3.60;;;26.80;32.80;;;;;;2266289;61;20391;-62
2021/09/07 06:31:12;0.00;0.00;0.62;0.00;0.00;0.62;4.20;3.70;;;26.80;32.80;;;;;;2266215;61;20364;-61
2021/09/07 06:33:57;0.00;0.00;0.62;0.00;0.00;0.62;4.80;4.07;;;26.80;32.80;;;;;;2265941;61;20416;-60
2021/09/07 06:36:41;0.00;0.00;0.62;0.00;0.00;0.62;5.87;3.87;;;26.80;32.80;;;;;;2265900;61;20436;-60
2021/09/07 06:39:29;0.00;0.00;0.62;0.00;0.00;0.62;4.23;3.43;;;26.80;32.80;;;;;;2266066;61;20385;-62
2021/09/07 06:42:13;0.00;0.00;0.62;0.00;0.00;0.62;4.57;4.00;;;26.80;32.90;;;;;;2265996;61;20389;-61
2021/09/07 06:44:58;0.00;0.00;0.62;0.00;0.00;0.62;5.30;4.10;;;26.80;32.90;;;;;;2265934;61;20357;-59
2021/09/07 06:47:43;0.00;0.00;0.62;0.00;0.00;0.62;4.10;3.70;;;26.80;32.90;;;;;;2266071;61;20360;-62
2021/09/07 06:50:27;0.00;0.00;0.62;0.00;0.00;0.62;5.60;4.77;;;26.80;33.00;;;;;;2266189;61;20730;-61
2021/09/07 06:53:12;0.00;0.00;0.62;0.00;0.00;0.62;6.13;3.60;;;26.80;33.00;;;;;;2265895;61;20453;-58
2021/09/07 06:55:58;0.00;0.00;0.62;0.00;0.00;0.62;5.37;4.07;;;26.80;33.70;;;;;;2265837;61;20345;-62
2021/09/07 06:58:42;0.00;0.00;0.62;0.00;0.00;0.62;8.93;4.90;;;26.80;33.00;;;;;;2265741;61;20776;-63
2021/09/07 07:01:26;0.00;0.00;0.62;0.00;0.00;0.62;5.43;4.77;;;26.80;33.10;;;;;;2265948;61;20364;-59
2021/09/07 07:04:11;0.00;0.00;0.62;0.00;0.00;0.62;7.30;5.50;;;26.80;33.10;;;;;;2266008;61;20349;-62
2021/09/07 07:06:55;0.00;0.00;0.62;0.00;0.00;0.62;6.43;5.47;;;26.80;33.10;;;;;;2265750;61;20396;-63
2021/09/07 07:09:40;0.00;0.00;0.62;0.00;0.00;0.62;5.20;4.70;;;26.80;33.20;;;;;;2265805;61;20464;-64
2021/09/07 07:12:26;0.00;0.00;0.62;0.00;0.00;0.62;9.00;4.80;;;26.80;33.20;;;;;;2265982;61;20652;-62
2021/09/07 07:15:11;0.00;0.00;0.62;0.00;0.00;0.62;7.40;5.40;;;26.80;33.20;;;;;;2265795;61;20398;-63
2021/09/07 07:17:55;0.00;0.00;0.62;0.00;0.00;0.62;6.90;6.20;;;26.80;33.20;;;;;;2265736;61;20353;-60
2021/09/07 07:20:40;0.00;0.00;0.62;0.00;0.00;0.62;8.10;5.80;;;26.90;33.30;;;;;;2265529;61;20349;-62
2021/09/07 07:23:24;0.00;0.00;0.62;0.00;0.00;0.62;8.03;6.50;;;26.90;33.30;;;;;;2265967;61;20607;-61
2021/09/07 07:26:09;0.00;0.00;0.62;0.00;0.00;0.62;18.10;6.80;;;26.90;33.20;;;;;;2266062;61;20705;-62
2021/09/07 07:28:55;0.00;0.00;0.62;0.00;0.00;0.62;8.47;6.97;;;26.90;33.20;;;;;;2265736;61;20384;-60
2021/09/07 07:31:40;0.00;0.00;0.62;0.00;0.00;0.62;9.40;7.63;;;26.90;33.20;;;;;;2265779;61;20596;-63
2021/09/07 07:34:24;0.00;0.00;0.62;0.00;0.00;0.62;11.57;8.93;;;26.90;33.10;;;;;;2266026;61;20353;-63
2021/09/07 07:37:09;0.00;0.00;0.62;0.00;0.00;0.62;11.33;8.77;;;26.90;33.20;;;;;;2265601;61;20571;-63
2021/09/07 07:39:53;0.00;0.00;0.62;0.00;0.00;0.62;12.03;8.23;;;26.90;33.20;;;;;;2265258;61;20408;-63
2021/09/07 07:42:38;0.00;0.00;0.62;0.00;0.00;0.62;12.07;10.03;;;26.90;33.20;;;;;;2265975;61;20384;-61
2021/09/07 07:45:24;0.00;0.00;0.62;0.00;0.00;0.62;13.87;10.50;;;26.90;33.30;;;;;;2265989;61;20400;-63
2021/09/07 07:48:08;0.00;0.00;0.62;0.00;0.00;0.62;11.50;9.30;;;26.90;33.20;;;;;;2265911;61;20575;-61
2021/09/07 07:50:53;0.00;0.00;0.62;0.00;0.00;0.62;9.50;8.13;;;26.90;33.30;;;;;;2265533;61;20353;-64
2021/09/07 07:53:39;0.00;0.00;0.62;0.00;0.00;0.62;11.67;9.00;;;26.90;33.30;;;;;;2265863;61;20405;-63
2021/09/07 07:56:23;0.00;0.00;0.62;0.00;0.00;0.62;12.37;9.43;;;26.90;33.40;;;;;;2265856;61;20425;-62
2021/09/07 07:59:08;0.00;0.00;0.62;0.00;0.00;0.62;14.10;11.27;;;26.90;33.40;;;;;;2265503;61;20439;-63
2021/09/07 08:01:54;0.00;0.00;0.62;0.00;0.00;0.62;11.70;9.87;;;26.90;33.30;;;;;;2265567;61;20357;-61
2021/09/07 08:04:39;0.00;0.00;0.62;0.00;0.00;0.62;13.10;10.80;;;26.90;33.30;;;;;;2265995;61;20368;-62
2021/09/07 08:07:24;0.00;0.00;0.62;0.00;0.00;0.62;10.73;8.63;;;26.90;33.40;;;;;;2265906;61;20357;-61
2021/09/07 08:10:10;0.00;0.00;0.62;0.00;0.00;0.62;12.60;9.87;;;26.90;33.40;;;;;;2265678;61;20601;-59
2021/09/07 08:12:54;0.00;0.00;0.62;0.00;0.00;0.62;12.80;9.93;;;26.90;33.40;;;;;;2265460;61;20786;-64
2021/09/07 08:15:39;0.00;0.00;0.62;0.00;0.00;0.62;10.60;9.43;;;26.90;33.40;;;;;;2265699;61;20445;-60
2021/09/07 08:18:25;0.00;0.00;0.62;0.00;0.00;0.62;10.83;9.50;;;26.90;33.40;;;;;;2265852;61;20357;-61
2021/09/07 08:21:09;0.00;0.00;0.62;0.00;0.00;0.62;10.30;8.90;;;26.90;33.40;;;;;;2265392;61;20436;-61
2021/09/07 08:23:54;0.00;0.00;0.62;0.00;0.00;0.62;10.13;8.80;;;27.00;33.40;;;;;;2265698;61;20399;-63
2021/09/07 08:26:39;0.00;0.00;0.62;0.00;0.00;0.62;11.27;9.40;;;27.00;33.30;;;;;;2265909;61;20407;-61
2021/09/07 08:29:24;0.00;0.00;0.62;0.00;0.00;0.62;12.50;8.67;;;27.00;33.20;;;;;;2262427;61;20428;-60
2021/09/07 08:32:08;0.00;0.00;0.62;0.00;0.00;0.62;11.97;8.23;;;27.00;33.20;;;;;;2265652;61;20381;-62
2021/09/07 08:34:54;0.00;0.00;0.62;0.00;0.00;0.62;10.90;8.70;;;27.00;33.10;;;;;;2265479;61;20369;-61
2021/09/07 08:37:41;0.00;0.00;0.62;0.00;0.00;0.62;11.70;7.50;;;27.00;33.00;;;;;;2265702;61;20352;-62
2021/09/07 08:40:25;0.00;0.00;0.62;0.00;0.00;0.62;9.80;8.00;;;27.00;33.00;;;;;;2265665;61;20412;-61
2021/09/07 08:43:10;0.00;0.00;0.62;0.00;0.00;0.62;9.47;8.27;;;27.00;32.90;;;;;;2265548;61;20381;-62
2021/09/07 08:45:57;0.00;0.00;0.62;0.00;0.00;0.62;9.97;7.30;;;27.00;32.80;;;;;;2265741;61;20400;-62
2021/09/07 08:48:41;0.00;0.00;0.62;0.00;0.00;0.62;11.77;8.27;;;27.00;32.70;;;;;;2265475;61;20350;-60
2021/09/07 08:51:27;0.00;0.00;0.62;0.00;0.00;0.62;8.23;7.03;;;27.00;32.70;;;;;;2265478;61;20741;-61
2021/09/07 08:54:12;0.00;0.00;0.62;0.00;0.00;0.62;10.43;6.17;;;27.00;32.50;;;;;;2265608;61;20468;-63
2021/09/07 08:56:56;0.00;0.00;0.62;0.00;0.00;0.62;8.00;5.73;;;27.00;32.50;;;;;;2265534;61;20357;-60
2021/09/07 08:59:41;0.00;0.00;0.62;0.00;0.00;0.62;5.70;4.80;;;27.00;32.60;;;;;;2265648;61;20389;-62
2021/09/07 09:02:27;0.00;0.00;0.62;0.00;0.00;0.62;7.23;5.47;;;27.00;32.50;;;;;;2265616;61;20376;-60
2021/09/07 09:05:12;0.00;0.00;0.62;0.00;0.00;0.62;7.80;5.30;;;27.10;32.60;;;;;;2265465;61;20656;-61
2021/09/07 09:07:58;0.00;0.00;0.62;0.00;0.00;0.62;10.13;6.63;;;27.10;32.50;;;;;;2265562;61;20357;-60
2021/09/07 09:10:45;0.00;0.00;0.62;0.00;0.00;0.62;7.97;7.03;;;27.10;32.30;;;;;;2265681;61;20360;-62
2021/09/07 09:13:41;0.00;0.00;0.62;0.00;0.00;0.62;10.93;7.67;;;27.10;32.20;;;;;;2265468;61;20455;-63
2021/09/07 09:16:31;0.00;0.00;0.62;0.00;0.00;0.62;8.40;6.90;;;27.10;32.00;;;;;;2265292;61;20365;-63
2021/09/07 09:19:15;0.00;0.00;0.62;0.00;0.00;0.62;9.13;6.90;;;27.10;31.80;;;;;;2265268;61;20600;-61
2021/09/07 09:22:00;0.00;0.00;0.62;0.00;0.00;0.62;6.80;6.07;;;27.10;31.70;;;;;;2265391;61;20364;-61
2021/09/07 09:24:46;0.00;0.00;0.62;0.00;0.00;0.62;6.70;6.00;;;27.10;31.70;;;;;;2265753;61;20352;-61
2021/09/07 09:27:30;0.00;0.00;0.62;0.00;0.00;0.62;7.20;6.37;;;27.10;31.70;;;;;;2265410;61;20432;-64
2021/09/07 09:30:16;0.00;0.00;0.62;0.00;0.00;0.62;8.50;5.30;;;27.10;31.80;;;;;;2265543;61;20349;-61
2021/09/07 09:33:01;0.00;0.00;0.62;0.00;0.00;0.62;7.43;6.23;;;27.10;31.90;;;;;;2265742;61;20411;-64
2021/09/07 09:35:54;0.00;0.00;0.62;0.00;0.00;0.62;6.70;5.77;;;27.10;31.90;;;;;;2265398;61;20861;-60
2021/09/07 09:38:43;0.00;0.00;0.62;0.00;0.00;0.62;8.23;6.70;;;27.10;31.70;;;;;;2265396;61;20376;-64
2021/09/07 09:41:48;0.00;0.00;0.62;0.00;0.00;0.62;6.53;5.53;;;27.10;31.70;;;;;;2265268;61;20376;-61
2021/09/07 09:44:34;0.00;0.00;0.62;0.00;0.00;0.62;6.67;5.50;;;27.20;31.70;;;;;;2265608;61;20361;-63
2021/09/07 09:47:33;0.00;0.00;0.62;0.00;0.00;0.62;6.90;5.20;;;27.20;31.70;;;;;;2266482;61;20364;-60
2021/09/07 09:50:19;0.00;0.00;0.62;0.00;0.00;0.62;5.87;4.83;;;27.20;31.80;;;;;;2266088;61;20376;-61
2021/09/07 09:53:04;0.00;0.00;0.62;0.00;0.00;0.62;5.30;4.80;;;27.20;31.80;;;;;;2265689;61;20440;-61
2021/09/07 09:55:50;0.00;0.00;0.62;0.00;0.00;0.62;5.37;4.83;;;27.20;31.80;;;;;;2266463;61;20349;-60
2021/09/07 09:58:36;0.00;0.00;0.62;0.00;0.00;0.62;6.20;4.93;;;27.30;31.80;;;;;;2266306;61;20376;-60
2021/09/07 10:01:21;0.00;0.00;0.62;0.00;0.00;0.62;7.00;6.30;;;27.30;31.60;;;;;;2266225;61;20368;-61
2021/09/07 10:04:08;0.00;0.00;0.62;0.00;0.00;0.62;6.70;6.00;;;27.30;31.60;;;;;;2265843;61;20393;-60
2021/09/07 10:06:53;0.00;0.00;0.62;0.00;0.00;0.62;8.13;6.10;;;27.30;31.60;;;;;;2266220;61;20365;-61
2021/09/07 10:09:41;0.00;0.00;0.62;0.00;0.00;0.62;7.83;6.50;;;27.30;31.60;;;;;;2266181;61;20372;-61
2021/09/07 10:12:32;0.00;0.00;0.62;0.00;0.00;0.62;7.37;5.80;;;27.30;31.60;;;;;;2265875;61;20416;-60
2021/09/07 10:15:30;0.00;0.00;0.62;0.00;0.00;0.62;8.00;6.17;;;27.30;31.60;;;;;;2266057;61;20411;-63
2021/09/07 10:24:58;0.00;0.00;0.62;0.00;0.00;0.62;6.40;5.63;;;27.40;31.30;;;;;;2253551;61;20432;-61
2021/09/07 10:28:07;0.00;0.00;0.62;0.00;0.00;0.62;8.73;6.40;;;27.40;31.20;;;;;;2265991;61;20396;-64
2021/09/07 10:31:02;0.00;0.00;0.62;0.00;0.00;0.62;8.47;6.83;;;27.40;30.90;;;;;;2265930;61;20357;-58
2021/09/07 10:34:01;0.00;0.00;0.62;0.00;0.00;0.62;10.20;7.70;;;27.40;30.70;;;;;;2266025;61;20377;-58
2021/09/07 10:36:57;0.00;0.00;0.62;0.00;0.00;0.62;7.70;7.00;;;27.40;30.30;;;;;;2266116;61;20357;-60
2021/09/07 10:39:43;0.00;0.00;0.62;0.00;0.00;0.62;9.47;8.47;;;27.40;30.20;;;;;;2266022;61;20384;-61
2021/09/07 10:42:47;0.00;0.00;0.62;0.00;0.00;0.62;10.10;8.67;;;27.40;29.90;;;;;;2265809;61;20376;-60
2021/09/07 10:45:32;0.00;0.00;0.62;0.00;0.00;0.62;11.87;8.47;;;27.40;29.80;;;;;;2265943;61;20630;-60
2021/09/07 10:48:36;0.00;0.00;0.62;0.00;0.00;0.62;9.47;8.37;;;27.40;29.70;;;;;;2265841;61;20360;-60
2021/09/07 10:51:21;0.00;0.00;0.62;0.00;0.00;0.62;10.27;8.17;;;27.40;29.70;;;;;;2266033;61;20376;-55
2021/09/07 10:54:09;0.00;0.00;0.62;0.00;0.00;0.62;8.57;7.23;;;27.40;29.80;;;;;;2266053;61;20439;-59
2021/09/07 10:56:58;0.00;0.00;0.62;0.00;0.00;0.62;11.80;8.60;;;27.40;29.90;;;;;;2265858;61;20408;-60
2021/09/07 10:59:47;0.00;0.00;0.62;0.00;0.00;0.62;11.80;8.30;;;27.40;30.00;;;;;;2265750;61;20780;-61
2021/09/07 11:02:35;0.00;0.00;0.62;0.00;0.00;0.62;12.87;8.07;;;27.40;30.00;;;;;;2265802;61;20760;-60